Time;durP1;ratioP1;P1;durP2;ratioP2;P2;SDS_P1;SDS_P2;PMS_P1;PMS_P2;Temp;Humidity;BMP_temperature;BMP_pressure;BME280_temperature;BME280_humidity;BME280_pressure;Samples;Min_cycle;Max_cycle;Signal;HPM_P1;HPM_P2
2022/08/08 00:01:48;;;;;;;3.30;2.38;;;22.70;80.20;;;;;;4997882;28;20137;-62
2022/08/08 00:04:17;;;;;;;5.45;2.42;;;22.70;80.40;;;;;;4997256;28;20147;-61
2022/08/08 00:06:57;;;;;;;4.78;2.20;;;22.70;80.40;;;;;;4994298;28;20124;-61
2022/08/08 00:09:45;;;;;;;5.65;2.63;;;22.70;80.40;;;;;;4980429;28;20520;-61
2022/08/08 00:12:12;;;;;;;2.40;2.17;;;22.70;80.30;;;;;;4999155;28;20057;-61
2022/08/08 00:14:46;;;;;;;4.45;2.40;;;22.70;80.40;;;;;;5012754;28;20026;-61
2022/08/08 00:17:29;;;;;;;2.45;2.20;;;22.70;80.50;;;;;;4998487;28;20469;-61
2022/08/08 00:19:59;;;;;;;3.20;2.17;;;22.60;80.60;;;;;;4995126;28;20029;-61
2022/08/08 00:22:27;;;;;;;3.05;2.35;;;22.60;80.70;;;;;;5014004;28;20053;-61
2022/08/08 00:24:58;;;;;;;3.05;2.20;;;22.60;80.70;;;;;;4997684;28;20030;-61
2022/08/08 00:27:24;;;;;;;3.63;2.10;;;22.60;80.80;;;;;;4978767;28;20503;-62
2022/08/08 00:29:58;;;;;;;3.03;2.05;;;22.50;80.70;;;;;;4980140;28;20050;-61
2022/08/08 00:32:47;;;;;;;3.20;1.98;;;22.60;80.70;;;;;;4980944;28;20398;-61
2022/08/08 00:35:38;;;;;;;3.42;2.38;;;22.50;80.70;;;;;;4997441;28;20022;-61
2022/08/08 00:38:06;;;;;;;4.43;2.28;;;22.50;80.80;;;;;;4979172;28;20041;-60
2022/08/08 00:40:38;;;;;;;2.65;2.00;;;22.40;80.90;;;;;;4996541;28;20038;-61
2022/08/08 00:43:31;;;;;;;2.38;1.95;;;22.40;81.00;;;;;;5013976;28;20046;-61
2022/08/08 00:46:28;;;;;;;2.85;1.90;;;22.40;81.10;;;;;;4994901;28;20126;-61
2022/08/08 00:49:19;;;;;;;3.95;2.35;;;22.40;81.10;;;;;;4980166;28;20461;-61
2022/08/08 00:51:44;;;;;;;2.03;1.90;;;22.30;81.20;;;;;;4998264;28;20034;-61
2022/08/08 00:54:28;;;;;;;3.15;1.95;;;22.30;81.30;;;;;;4999691;28;20022;-61
2022/08/08 00:57:15;;;;;;;2.65;2.35;;;22.40;81.30;;;;;;5014195;28;20120;-61
2022/08/08 00:59:53;;;;;;;2.45;2.05;;;22.30;81.30;;;;;;4998219;28;20025;-61
2022/08/08 01:02:25;;;;;;;3.03;2.20;;;22.30;81.40;;;;;;5001151;28;20130;-62
2022/08/08 01:05:06;;;;;;;4.03;2.30;;;22.30;81.60;;;;;;4999635;28;20276;-60
2022/08/08 01:08:06;;;;;;;5.75;2.00;;;22.30;81.70;;;;;;4999445;28;20073;-61
2022/08/08 01:10:57;;;;;;;3.53;2.15;;;22.20;81.60;;;;;;4992011;28;20061;-61
2022/08/08 01:14:00;;;;;;;2.22;1.98;;;22.20;81.70;;;;;;5001145;28;20037;-61
2022/08/08 01:16:48;;;;;;;2.25;2.05;;;22.20;81.90;;;;;;4999868;28;20041;-61
2022/08/08 01:19:29;;;;;;;2.72;2.38;;;22.20;82.10;;;;;;4998415;28;20030;-62
2022/08/08 01:22:10;;;;;;;3.10;2.20;;;22.10;82.10;;;;;;5002499;28;20066;-61
2022/08/08 01:24:53;;;;;;;3.03;2.10;;;22.10;82.10;;;;;;5002399;28;20037;-61
2022/08/08 01:27:53;;;;;;;3.35;2.35;;;22.10;82.20;;;;;;4984320;28;20059;-61
2022/08/08 01:30:32;;;;;;;3.65;2.70;;;22.00;82.20;;;;;;4998082;28;20065;-61
2022/08/08 01:33:22;;;;;;;4.57;2.42;;;22.00;82.30;;;;;;5000615;28;20101;-61
2022/08/08 01:36:19;;;;;;;5.63;2.25;;;22.00;82.30;;;;;;4984700;28;20025;-61
2022/08/08 01:39:26;;;;;;;2.38;2.17;;;22.00;82.40;;;;;;5000559;28;20029;-61
2022/08/08 01:41:58;;;;;;;4.22;2.10;;;22.00;82.50;;;;;;4983796;28;20072;-60
2022/08/08 01:44:41;;;;;;;4.53;2.40;;;21.90;82.60;;;;;;5001596;28;20030;-61
2022/08/08 01:47:25;;;;;;;2.75;2.05;;;22.00;82.70;;;;;;4998483;28;20800;-62
2022/08/08 01:50:18;;;;;;;3.20;2.08;;;21.90;82.50;;;;;;5001594;28;20144;-61
2022/08/08 01:52:56;;;;;;;4.03;2.30;;;21.90;82.60;;;;;;5017667;28;20409;-61
2022/08/08 01:55:43;;;;;;;2.45;2.03;;;21.90;82.70;;;;;;4997227;28;20066;-61
2022/08/08 01:58:26;;;;;;;4.03;2.67;;;21.80;82.70;;;;;;4999125;28;20613;-61
2022/08/08 02:00:57;;;;;;;2.92;2.00;;;21.80;82.70;;;;;;4999531;28;20520;-61
2022/08/08 02:03:31;;;;;;;3.80;2.05;;;21.80;82.80;;;;;;4995513;28;20038;-61
2022/08/08 02:06:15;;;;;;;9.75;2.30;;;21.80;82.90;;;;;;4999654;28;20072;-61
2022/08/08 02:08:59;;;;;;;2.70;2.10;;;21.80;83.00;;;;;;4997709;28;20048;-61
2022/08/08 02:11:44;;;;;;;4.72;2.53;;;21.70;83.00;;;;;;5000160;28;20536;-61
2022/08/08 02:14:35;;;;;;;2.50;2.05;;;21.70;83.00;;;;;;4999774;28;20454;-61
2022/08/08 02:17:03;;;;;;;2.63;2.40;;;21.70;83.10;;;;;;5013454;28;20568;-61
2022/08/08 02:20:00;;;;;;;2.63;2.28;;;21.70;83.10;;;;;;4997115;28;20034;-62
2022/08/08 02:22:42;;;;;;;8.43;2.20;;;21.70;83.10;;;;;;4996032;28;20098;-61
2022/08/08 02:25:21;;;;;;;2.35;2.00;;;21.60;83.10;;;;;;4997937;28;20363;-61
2022/08/08 02:28:02;;;;;;;2.28;2.08;;;21.60;83.20;;;;;;5017382;28;20108;-61
2022/08/08 02:30:45;;;;;;;2.20;2.00;;;21.60;83.20;;;;;;4995080;28;20025;-62
2022/08/08 02:33:55;;;;;;;3.22;2.38;;;21.60;83.20;;;;;;4980864;28;20061;-61
2022/08/08 02:36:32;;;;;;;2.85;2.10;;;21.60;83.10;;;;;;4985731;28;20029;-61
2022/08/08 02:39:24;;;;;;;4.88;2.22;;;21.60;83.30;;;;;;5000068;28;20033;-61
2022/08/08 02:42:13;;;;;;;2.42;1.98;;;21.60;83.30;;;;;;4999671;28;20050;-61
2022/08/08 02:45:01;;;;;;;3.38;2.30;;;21.50;83.20;;;;;;4995852;28;20395;-61
2022/08/08 02:48:00;;;;;;;2.10;1.90;;;21.50;83.40;;;;;;5011639;28;20718;-61
2022/08/08 02:50:49;;;;;;;1.80;1.70;;;21.40;83.30;;;;;;5000345;28;20030;-62
2022/08/08 02:53:35;;;;;;;5.10;2.25;;;21.40;83.30;;;;;;4995414;28;20405;-61
2022/08/08 02:56:20;;;;;;;2.25;2.05;;;21.50;83.50;;;;;;4998011;28;20381;-61
2022/08/08 02:59:04;;;;;;;4.25;2.45;;;21.50;83.50;;;;;;4978462;28;20129;-60
2022/08/08 03:02:07;;;;;;;2.65;2.17;;;21.40;83.50;;;;;;5000230;28;20499;-60
2022/08/08 03:04:57;;;;;;;3.67;2.08;;;21.40;83.50;;;;;;5000064;28;20052;-61
2022/08/08 03:07:56;;;;;;;3.25;1.85;;;21.40;83.50;;;;;;4999205;28;20034;-60
2022/08/08 03:10:44;;;;;;;2.53;1.67;;;21.40;83.50;;;;;;4998015;28;20121;-61
2022/08/08 03:13:23;;;;;;;2.33;2.13;;;21.30;83.50;;;;;;4997197;28;20477;-61
2022/08/08 03:16:06;;;;;;;5.28;1.92;;;21.30;83.50;;;;;;4999798;28;20402;-60
2022/08/08 03:18:53;;;;;;;2.53;2.25;;;21.30;84.40;;;;;;4997441;28;20025;-60
2022/08/08 03:21:19;;;;;;;4.20;2.03;;;21.30;83.70;;;;;;5000536;28;20037;-60
2022/08/08 03:23:47;;;;;;;2.28;2.00;;;21.20;83.70;;;;;;4997802;28;20030;-60
2022/08/08 03:26:25;;;;;;;2.30;1.80;;;21.10;83.70;;;;;;4997180;28;20132;-60
2022/08/08 03:28:54;;;;;;;2.97;2.03;;;21.20;83.70;;;;;;4980543;28;20057;-60
2022/08/08 03:34:05;;;;;;;2.40;1.77;;;21.20;84.40;;;;;;4996195;28;20033;-61
2022/08/08 03:36:31;;;;;;;2.15;1.90;;;21.10;83.70;;;;;;4997511;28;20050;-60
2022/08/08 03:38:57;;;;;;;2.17;1.95;;;21.10;83.80;;;;;;4995776;28;20046;-60
2022/08/08 03:41:30;;;;;;;3.55;2.00;;;21.10;83.80;;;;;;4994097;28;20038;-60
2022/08/08 03:43:56;;;;;;;2.05;1.85;;;21.10;83.80;;;;;;4998218;28;22623;-61
2022/08/08 03:46:22;;;;;;;3.42;1.98;;;21.10;83.80;;;;;;5013257;28;20025;-60
2022/08/08 03:48:55;;;;;;;2.80;1.92;;;21.10;83.80;;;;;;4997147;28;20041;-60
2022/08/08 03:51:21;;;;;;;2.50;1.90;;;21.10;83.90;;;;;;4981900;28;20038;-61
2022/08/08 03:53:46;;;;;;;4.00;2.08;;;21.00;83.90;;;;;;4999524;28;20025;-60
2022/08/08 03:56:12;;;;;;;2.13;1.90;;;21.00;83.90;;;;;;4996391;28;20536;-60
2022/08/08 03:58:37;;;;;;;3.20;2.00;;;21.00;84.00;;;;;;5011418;28;20044;-60
2022/08/08 04:01:04;;;;;;;2.28;2.08;;;21.00;84.00;;;;;;4997751;28;20036;-60
2022/08/08 04:03:35;;;;;;;2.72;2.03;;;21.00;84.00;;;;;;4994572;28;20018;-61
2022/08/08 04:06:07;;;;;;;5.55;1.88;;;20.90;84.00;;;;;;4999624;28;20069;-60
2022/08/08 04:08:34;;;;;;;3.67;2.00;;;20.90;84.20;;;;;;4997785;28;20441;-61
2022/08/08 04:11:01;;;;;;;2.17;1.98;;;20.90;83.90;;;;;;4996620;28;20030;-60
2022/08/08 04:13:26;;;;;;;7.68;1.90;;;20.90;83.90;;;;;;4998491;28;20574;-60
2022/08/08 04:15:52;;;;;;;3.30;1.40;;;20.90;84.00;;;;;;4965827;28;20038;-60
2022/08/08 04:18:17;;;;;;;3.22;2.08;;;20.90;84.00;;;;;;4977406;28;20049;-60
2022/08/08 04:20:43;;;;;;;2.95;1.80;;;20.80;83.90;;;;;;4997946;28;20058;-60
2022/08/08 04:23:08;;;;;;;2.30;1.77;;;20.80;84.00;;;;;;4997181;28;20101;-60
2022/08/08 04:25:34;;;;;;;2.25;1.95;;;20.80;84.00;;;;;;4997401;28;20069;-61
2022/08/08 04:27:59;;;;;;;3.42;1.90;;;20.80;84.00;;;;;;5011220;28;20088;-60
2022/08/08 04:30:25;;;;;;;2.05;1.75;;;20.80;84.00;;;;;;4995872;28;20174;-61
2022/08/08 04:32:50;;;;;;;3.63;2.08;;;20.80;84.00;;;;;;4995082;28;20488;-60
2022/08/08 04:35:17;;;;;;;1.98;1.75;;;20.80;84.00;;;;;;4998916;28;20477;-60
2022/08/08 04:37:42;;;;;;;2.85;1.77;;;20.80;84.00;;;;;;5002380;28;21047;-59
2022/08/08 04:40:09;;;;;;;3.90;1.65;;;20.80;84.00;;;;;;5001971;28;20030;-60
2022/08/08 04:42:35;;;;;;;7.25;2.63;;;20.80;84.00;;;;;;5003093;28;20057;-60
2022/08/08 04:45:00;;;;;;;2.63;2.42;;;20.70;83.80;;;;;;4999222;28;20081;-61
2022/08/08 04:47:26;;;;;;;3.92;2.08;;;20.70;83.80;;;;;;5000418;28;20101;-60
2022/08/08 04:49:51;;;;;;;3.55;2.08;;;20.70;83.80;;;;;;5001724;28;20034;-60
2022/08/08 04:52:17;;;;;;;4.85;1.98;;;20.70;83.90;;;;;;5002691;28;20147;-60
2022/08/08 04:54:42;;;;;;;3.13;2.10;;;20.70;83.80;;;;;;5002238;28;20045;-61
2022/08/08 04:57:08;;;;;;;3.42;2.10;;;20.60;83.60;;;;;;5000315;28;20066;-60
2022/08/08 04:59:34;;;;;;;3.65;2.17;;;20.70;83.60;;;;;;5001794;28;20030;-60
2022/08/08 05:01:59;;;;;;;2.55;2.17;;;20.70;83.60;;;;;;5001246;28;20041;-60
2022/08/08 05:04:25;;;;;;;3.28;2.10;;;20.60;83.50;;;;;;5003199;28;20054;-60
2022/08/08 05:06:50;;;;;;;2.15;1.95;;;20.60;83.40;;;;;;5000803;28;20486;-60
2022/08/08 05:09:16;;;;;;;2.22;2.03;;;20.60;83.30;;;;;;4982275;28;20504;-61
2022/08/08 05:11:41;;;;;;;2.33;2.05;;;20.60;83.30;;;;;;4999180;28;20069;-61
2022/08/08 05:14:07;;;;;;;2.72;1.65;;;20.60;83.90;;;;;;4999117;28;20022;-60
2022/08/08 05:16:37;;;;;;;3.75;2.20;;;20.60;83.10;;;;;;4983223;28;20034;-60
2022/08/08 05:19:03;;;;;;;3.22;2.33;;;20.60;83.10;;;;;;4998781;28;20499;-60
2022/08/08 05:21:28;;;;;;;2.63;1.95;;;20.60;83.10;;;;;;4999755;28;20345;-60
2022/08/08 05:23:54;;;;;;;2.10;1.70;;;20.60;83.00;;;;;;5001022;28;20058;-60
2022/08/08 05:26:21;;;;;;;2.53;2.05;;;20.60;82.90;;;;;;4980933;28;20237;-60
2022/08/08 05:28:46;;;;;;;3.08;1.90;;;20.60;82.90;;;;;;4999529;28;20559;-60
2022/08/08 05:31:12;;;;;;;2.92;1.95;;;20.60;82.80;;;;;;5000140;28;20042;-60
2022/08/08 05:33:37;;;;;;;3.40;1.90;;;20.50;82.70;;;;;;4989383;28;20135;-60
2022/08/08 05:36:03;;;;;;;2.92;1.90;;;20.60;82.80;;;;;;4980280;28;20041;-60
2022/08/08 05:38:32;;;;;;;3.55;1.90;;;20.60;82.70;;;;;;4996126;28;20029;-61
2022/08/08 05:40:58;;;;;;;3.72;2.00;;;20.60;82.60;;;;;;5010122;28;20419;-60
2022/08/08 05:43:26;;;;;;;2.58;1.75;;;20.60;82.50;;;;;;4986922;28;20157;-61
2022/08/08 05:45:56;;;;;;;1.92;1.83;;;20.50;82.30;;;;;;4997689;28;20026;-60
2022/08/08 05:48:21;;;;;;;2.50;1.75;;;20.60;82.40;;;;;;4995774;28;20022;-61
2022/08/08 05:50:47;;;;;;;3.47;1.98;;;20.60;82.30;;;;;;4997956;28;20049;-60
2022/08/08 05:53:13;;;;;;;2.17;1.90;;;20.60;82.20;;;;;;4997455;28;20836;-61
2022/08/08 05:55:38;;;;;;;2.53;2.15;;;20.60;82.20;;;;;;4983323;28;20030;-60
2022/08/08 05:58:04;;;;;;;2.92;2.05;;;20.50;82.00;;;;;;4997236;28;20033;-60
2022/08/08 06:00:31;;;;;;;2.88;1.85;;;20.50;82.10;;;;;;5012162;28;20062;-60
2022/08/08 06:03:09;;;;;;;4.47;1.98;;;20.60;82.10;;;;;;4980922;28;20375;-60
2022/08/08 06:05:38;;;;;;;2.95;1.90;;;20.50;81.90;;;;;;5000077;28;20034;-60
2022/08/08 06:08:03;;;;;;;2.50;2.03;;;20.50;82.10;;;;;;4999207;28;20297;-60
2022/08/08 06:10:30;;;;;;;2.90;2.28;;;20.40;82.20;;;;;;4998063;28;20025;-61
2022/08/08 06:12:56;;;;;;;2.15;1.95;;;20.40;82.30;;;;;;4993385;28;20516;-61
2022/08/08 06:15:21;;;;;;;4.25;2.25;;;20.40;82.50;;;;;;4994184;28;20046;-60
2022/08/08 06:17:47;;;;;;;3.35;2.25;;;20.30;82.70;;;;;;5013545;28;20097;-60
2022/08/08 06:20:12;;;;;;;4.38;2.42;;;20.30;82.80;;;;;;4981726;28;20074;-61
2022/08/08 06:22:38;;;;;;;3.50;2.30;;;20.30;82.80;;;;;;4999923;28;20030;-61
2022/08/08 06:25:04;;;;;;;2.33;2.00;;;20.30;82.90;;;;;;5002376;28;20095;-60
2022/08/08 06:27:36;;;;;;;3.08;2.20;;;20.30;83.00;;;;;;4998200;28;20440;-61
2022/08/08 06:30:04;;;;;;;2.58;2.38;;;20.20;83.10;;;;;;4979618;28;21196;-60
2022/08/08 06:32:30;;;;;;;2.40;1.98;;;20.20;83.30;;;;;;4997228;28;20026;-60
2022/08/08 06:34:58;;;;;;;3.42;2.60;;;20.10;83.30;;;;;;4997080;28;20046;-60
2022/08/08 06:37:25;;;;;;;3.10;2.15;;;20.10;83.20;;;;;;4997683;28;20041;-61
2022/08/08 06:39:51;;;;;;;5.60;2.50;;;20.10;83.20;;;;;;4981993;28;20034;-60
2022/08/08 06:42:17;;;;;;;2.50;2.30;;;20.20;83.20;;;;;;4982658;28;20505;-60
2022/08/08 06:44:42;;;;;;;2.80;2.40;;;20.20;83.20;;;;;;4997231;28;20060;-60
2022/08/08 06:47:08;;;;;;;3.10;2.38;;;20.20;83.20;;;;;;4999436;28;20359;-61
2022/08/08 06:49:33;;;;;;;3.13;1.98;;;20.20;83.10;;;;;;4997371;28;20025;-60
2022/08/08 06:51:59;;;;;;;5.00;2.50;;;20.30;83.10;;;;;;4997515;28;20038;-61
2022/08/08 06:54:25;;;;;;;7.63;2.50;;;20.30;83.10;;;;;;4999029;28;20060;-60
2022/08/08 06:56:51;;;;;;;3.85;1.90;;;20.20;83.00;;;;;;4980439;28;20481;-62
2022/08/08 06:59:16;;;;;;;3.28;2.10;;;20.20;83.00;;;;;;4994029;28;20042;-60
2022/08/08 07:01:54;;;;;;;3.67;2.30;;;20.30;83.00;;;;;;4996491;28;20064;-60
2022/08/08 07:04:29;;;;;;;3.97;2.47;;;20.30;83.00;;;;;;4981411;28;20034;-60
2022/08/08 07:06:55;;;;;;;4.60;2.22;;;20.30;83.10;;;;;;4978967;28;20026;-60
2022/08/08 07:09:38;;;;;;;5.82;2.58;;;20.30;82.90;;;;;;4998448;28;20502;-61
2022/08/08 07:12:07;;;;;;;2.45;2.25;;;20.40;83.10;;;;;;4983447;28;20103;-60
2022/08/08 07:14:47;;;;;;;5.47;2.13;;;20.40;83.00;;;;;;4997685;28;20251;-60
2022/08/08 07:17:17;;;;;;;4.22;2.33;;;20.40;83.00;;;;;;4980701;28;20030;-61
2022/08/08 07:20:00;;;;;;;6.30;2.22;;;20.40;83.00;;;;;;4999611;28;20037;-59
2022/08/08 07:23:01;;;;;;;7.50;2.45;;;20.40;82.90;;;;;;5016139;28;20053;-59
2022/08/08 07:25:26;;;;;;;14.45;2.72;;;20.40;82.90;;;;;;4993103;28;20099;-60
2022/08/08 07:28:09;;;;;;;8.90;2.78;;;20.40;83.10;;;;;;4997638;28;20022;-60
2022/08/08 07:30:34;;;;;;;6.60;2.40;;;20.50;83.20;;;;;;4996603;28;20025;-60
2022/08/08 07:33:00;;;;;;;5.63;2.60;;;20.40;83.00;;;;;;4995842;28;20390;-60
2022/08/08 07:35:26;;;;;;;7.50;2.78;;;20.50;83.30;;;;;;4996641;28;20485;-60
2022/08/08 07:37:52;;;;;;;13.88;2.70;;;20.50;83.20;;;;;;4996795;28;20025;-60
2022/08/08 07:40:18;;;;;;;7.57;3.10;;;20.50;83.10;;;;;;4998953;28;20018;-60
2022/08/08 07:42:43;;;;;;;9.52;2.80;;;20.50;83.20;;;;;;4999236;28;20050;-60
2022/08/08 07:45:09;;;;;;;11.00;2.97;;;20.50;83.20;;;;;;4998786;28;20045;-61
2022/08/08 07:47:35;;;;;;;10.65;3.15;;;20.50;83.20;;;;;;4996504;28;20022;-60
2022/08/08 07:50:01;;;;;;;10.40;2.88;;;20.50;83.20;;;;;;4997535;28;20064;-60
2022/08/08 07:52:26;;;;;;;9.70;3.50;;;20.50;83.20;;;;;;4977845;28;20030;-60
2022/08/08 07:54:55;;;;;;;14.55;2.92;;;20.50;83.10;;;;;;5011673;28;20198;-61
2022/08/08 07:57:33;;;;;;;10.27;2.95;;;20.50;83.40;;;;;;4996711;28;20576;-60
2022/08/08 08:00:08;;;;;;;11.95;3.05;;;20.60;83.00;;;;;;4995667;28;20552;-59
2022/08/08 08:02:36;;;;;;;16.38;3.17;;;20.60;82.90;;;;;;4995144;28;20040;-60
2022/08/08 08:05:02;;;;;;;19.88;4.03;;;20.60;82.60;;;;;;4999019;28;20057;-60
2022/08/08 08:07:33;;;;;;;28.73;5.50;;;20.60;82.80;;;;;;4997980;28;20125;-61
2022/08/08 08:10:00;;;;;;;29.08;5.45;;;20.60;82.90;;;;;;5010086;28;20466;-61
2022/08/08 08:12:26;;;;;;;25.02;5.07;;;20.60;82.80;;;;;;4997689;28;20513;-60
2022/08/08 08:15:01;;;;;;;31.98;5.20;;;20.70;82.90;;;;;;4993851;28;20055;-60
2022/08/08 08:17:27;;;;;;;;;;;20.70;82.80;;;;;;4997893;28;20022;-60
2022/08/08 08:19:56;;;;;;;18.58;4.22;;;20.70;82.80;;;;;;4998018;28;20576;-61
2022/08/08 08:22:21;;;;;;;23.90;4.70;;;20.70;82.50;;;;;;5001067;28;20107;-60
2022/08/08 08:24:47;;;;;;;20.08;3.95;;;20.70;82.70;;;;;;4997806;28;20635;-61
2022/08/08 08:27:12;;;;;;;17.83;3.92;;;20.70;82.50;;;;;;5000321;28;20109;-59
2022/08/08 08:29:38;;;;;;;22.02;4.15;;;20.80;82.60;;;;;;4998858;28;20021;-60
2022/08/08 08:32:04;;;;;;;20.92;4.25;;;20.80;82.60;;;;;;4998609;28;20073;-61
2022/08/08 08:34:29;;;;;;;11.80;3.88;;;20.80;82.80;;;;;;4996810;28;20168;-60
2022/08/08 08:36:55;;;;;;;23.80;3.80;;;20.80;82.60;;;;;;4998580;28;20038;-60
2022/08/08 08:39:20;;;;;;;26.30;4.78;;;20.80;82.90;;;;;;4997183;28;20113;-61
2022/08/08 08:41:46;;;;;;;22.23;4.22;;;20.70;82.70;;;;;;4998820;28;20145;-60
2022/08/08 08:44:12;;;;;;;15.35;3.30;;;20.80;82.70;;;;;;4984563;28;20413;-60
2022/08/08 08:46:37;;;;;;;12.02;3.78;;;20.90;82.50;;;;;;4999933;28;20463;-60
2022/08/08 08:49:03;;;;;;;11.20;3.42;;;20.90;82.40;;;;;;4998742;28;20057;-60
2022/08/08 08:51:29;;;;;;;21.80;3.90;;;20.90;82.50;;;;;;4998938;28;20034;-60
2022/08/08 08:53:55;;;;;;;11.40;3.85;;;20.90;82.30;;;;;;4998023;28;20105;-61
2022/08/08 08:56:22;;;;;;;17.15;3.85;;;21.00;82.40;;;;;;4995077;28;20481;-60
2022/08/08 08:58:48;;;;;;;15.65;3.70;;;21.00;82.70;;;;;;4978740;28;20026;-60
2022/08/08 09:01:15;;;;;;;19.08;4.15;;;21.00;82.80;;;;;;4995392;28;20060;-60
2022/08/08 09:03:46;;;;;;;13.70;3.78;;;21.00;82.80;;;;;;4979887;28;20366;-60
2022/08/08 09:06:12;;;;;;;32.55;4.43;;;21.00;82.70;;;;;;5012092;28;20698;-61
2022/08/08 09:08:38;;;;;;;16.40;3.65;;;21.10;82.60;;;;;;4979218;28;20030;-61
2022/08/08 09:11:05;;;;;;;34.97;5.35;;;21.10;82.40;;;;;;4981395;28;20782;-60
2022/08/08 09:13:31;;;;;;;40.85;5.85;;;21.10;82.40;;;;;;4998366;28;20031;-61
2022/08/08 09:15:57;;;;;;;32.15;4.95;;;21.10;82.40;;;;;;4999278;28;20076;-59
2022/08/08 09:18:22;;;;;;;37.00;5.10;;;21.20;82.80;;;;;;4994351;28;20107;-61
2022/08/08 09:20:48;;;;;;;36.70;5.82;;;21.20;81.60;;;;;;4981490;28;20033;-59
2022/08/08 09:23:14;;;;;;;33.03;4.95;;;21.20;81.60;;;;;;5016317;28;20042;-59
2022/08/08 09:25:42;;;;;;;26.90;5.25;;;21.30;81.30;;;;;;5018564;28;20026;-60
2022/08/08 09:28:08;;;;;;;23.95;5.03;;;21.30;80.90;;;;;;4996220;28;20073;-61
2022/08/08 09:30:33;;;;;;;23.52;5.28;;;21.30;80.80;;;;;;5016076;28;20125;-60
2022/08/08 09:32:59;;;;;;;38.15;4.75;;;21.30;80.40;;;;;;4984123;28;20355;-60
2022/08/08 09:35:27;;;;;;;40.72;5.97;;;21.40;80.30;;;;;;5003155;28;20113;-60
2022/08/08 09:37:55;;;;;;;27.40;5.47;;;21.40;80.00;;;;;;4985303;28;20439;-61
2022/08/08 09:40:22;;;;;;;32.90;6.03;;;21.40;79.80;;;;;;4983693;28;20649;-60
2022/08/08 09:43:14;;;;;;;26.75;4.80;;;21.50;79.50;;;;;;4984129;28;20047;-60
2022/08/08 09:45:47;;;;;;;30.63;5.45;;;21.50;79.30;;;;;;4987083;28;20032;-61
2022/08/08 09:48:15;;;;;;;38.45;5.97;;;21.60;79.20;;;;;;4998282;28;20696;-60
2022/08/08 09:50:41;;;;;;;38.58;6.03;;;21.60;79.20;;;;;;5000130;28;20037;-60
2022/08/08 09:53:06;;;;;;;45.50;6.32;;;21.50;78.90;;;;;;5000733;28;21307;-60
2022/08/08 09:55:32;;;;;;;28.80;4.85;;;21.60;78.70;;;;;;4982610;28;21293;-60
2022/08/08 09:58:06;;;;;;;36.42;5.70;;;21.60;78.50;;;;;;5002619;28;20049;-61
2022/08/08 10:00:34;;;;;;;39.70;5.53;;;21.60;78.30;;;;;;4986161;28;20069;-61
2022/08/08 10:03:01;;;;;;;48.05;6.60;;;21.70;78.20;;;;;;5001527;28;20058;-60
2022/08/08 10:05:28;;;;;;;43.72;6.38;;;21.70;78.20;;;;;;4980827;28;20042;-60
2022/08/08 10:07:54;;;;;;;56.45;7.57;;;21.70;78.00;;;;;;5014222;28;20552;-61
2022/08/08 10:10:39;;;;;;;43.90;5.82;;;21.70;77.90;;;;;;4998328;28;20125;-61
2022/08/08 10:13:22;;;;;;;46.30;7.05;;;21.80;77.80;;;;;;4998058;28;20037;-61
2022/08/08 10:15:49;;;;;;;82.90;10.35;;;21.80;77.10;;;;;;4998083;28;20018;-60
2022/08/08 10:18:25;;;;;;;63.92;8.23;;;21.90;76.90;;;;;;5025297;28;20046;-59
2022/08/08 10:20:55;;;;;;;53.67;6.93;;;21.90;76.70;;;;;;4997205;28;20026;-61
2022/08/08 10:23:33;;;;;;;57.72;8.30;;;22.00;76.10;;;;;;4985712;28;20072;-59
2022/08/08 10:25:58;;;;;;;89.95;11.63;;;22.00;75.90;;;;;;4999763;28;20125;-61
2022/08/08 10:28:24;;;;;;;98.45;11.32;;;22.00;75.80;;;;;;5001248;28;20052;-60
2022/08/08 10:30:54;;;;;;;83.80;9.82;;;22.00;75.70;;;;;;4999388;28;20435;-61
2022/08/08 10:33:31;;;;;;;80.43;8.65;;;22.10;75.40;;;;;;4996895;28;20018;-60
2022/08/08 10:36:02;;;;;;;55.55;9.23;;;22.10;75.20;;;;;;4999119;28;20113;-61
2022/08/08 10:38:33;;;;;;;62.08;9.00;;;22.20;74.90;;;;;;5000109;28;20056;-60
2022/08/08 10:41:03;;;;;;;72.13;9.52;;;22.20;74.60;;;;;;4985622;28;20049;-59
2022/08/08 10:43:38;;;;;;;77.35;9.90;;;22.20;74.50;;;;;;4998483;28;20030;-60
2022/08/08 10:46:04;;;;;;;57.47;8.65;;;22.30;74.40;;;;;;5034899;28;20107;-61
2022/08/08 10:48:33;;;;;;;64.05;7.93;;;22.30;74.20;;;;;;5000556;28;20038;-61
2022/08/08 10:50:58;;;;;;;69.55;7.90;;;22.40;74.00;;;;;;5001649;28;20038;-61
2022/08/08 10:53:35;;;;;;;58.35;7.47;;;22.40;73.70;;;;;;4997490;28;20577;-60
2022/08/08 10:56:01;;;;;;;39.20;6.57;;;22.50;73.50;;;;;;5019115;28;20030;-60
2022/08/08 10:58:27;;;;;;;46.35;7.05;;;22.50;73.30;;;;;;4999658;28;20040;-61
2022/08/08 11:00:52;;;;;;;57.05;7.40;;;22.60;73.10;;;;;;4997514;28;20038;-61
2022/08/08 11:03:18;;;;;;;46.70;6.40;;;22.70;72.90;;;;;;4980566;28;20034;-61
2022/08/08 11:05:50;;;;;;;52.42;6.78;;;22.70;72.90;;;;;;4998239;28;20045;-61
2022/08/08 11:08:25;;;;;;;36.95;5.80;;;22.80;72.80;;;;;;5010222;28;20038;-61
2022/08/08 11:11:00;;;;;;;44.08;5.95;;;22.80;72.60;;;;;;4996626;28;20041;-62
2022/08/08 11:13:26;;;;;;;45.22;6.55;;;22.90;72.20;;;;;;4996491;28;20022;-61
2022/08/08 11:15:51;;;;;;;35.75;6.32;;;23.00;72.00;;;;;;4998508;28;20029;-61
2022/08/08 11:18:17;;;;;;;38.30;4.70;;;23.10;71.80;;;;;;4995607;28;20137;-61
2022/08/08 11:20:43;;;;;;;28.73;5.30;;;23.20;70.90;;;;;;4981353;28;20109;-61
2022/08/08 11:23:08;;;;;;;36.30;5.43;;;23.30;71.00;;;;;;4995182;28;20256;-61
2022/08/08 11:25:34;;;;;;;44.60;6.55;;;23.30;70.80;;;;;;4995019;28;20512;-61
2022/08/08 11:28:00;;;;;;;34.70;5.32;;;23.40;70.60;;;;;;4994297;28;20436;-61
2022/08/08 11:30:30;;;;;;;17.90;4.40;;;23.50;70.50;;;;;;4978757;28;20571;-61
2022/08/08 11:32:57;;;;;;;28.85;4.07;;;23.60;70.20;;;;;;4995733;28;20038;-61
2022/08/08 11:35:22;;;;;;;25.90;4.90;;;23.70;69.70;;;;;;4994308;28;20456;-61
2022/08/08 11:37:48;;;;;;;20.13;4.63;;;23.80;69.40;;;;;;4998628;28;20033;-62
2022/08/08 11:40:14;;;;;;;28.35;3.90;;;23.90;69.10;;;;;;4961304;28;20038;-62
2022/08/08 11:42:41;;;;;;;17.63;3.38;;;24.00;68.90;;;;;;4996900;28;20385;-61
2022/08/08 11:45:06;;;;;;;14.88;3.33;;;24.10;68.20;;;;;;4996612;28;20553;-61
2022/08/08 11:47:32;;;;;;;17.08;3.22;;;24.20;67.90;;;;;;5009974;28;20046;-61
2022/08/08 11:50:08;;;;;;;21.17;3.53;;;24.30;67.70;;;;;;4995240;28;20034;-60
2022/08/08 11:52:34;;;;;;;20.40;3.88;;;24.40;67.60;;;;;;5011131;28;20034;-62
2022/08/08 11:55:00;;;;;;;11.88;2.70;;;24.50;67.30;;;;;;4995083;28;20037;-60
2022/08/08 11:57:27;;;;;;;8.98;3.15;;;24.50;66.90;;;;;;4994928;28;20044;-61
2022/08/08 11:59:59;;;;;;;11.27;2.80;;;24.60;66.90;;;;;;4994706;28;20277;-61
2022/08/08 12:02:25;;;;;;;16.27;2.90;;;24.70;66.70;;;;;;4994582;28;20038;-62
2022/08/08 12:05:05;;;;;;;14.07;2.80;;;24.80;66.50;;;;;;4979731;28;20026;-61
2022/08/08 12:07:42;;;;;;;14.32;2.70;;;24.80;66.20;;;;;;5027627;28;20518;-61
2022/08/08 12:10:18;;;;;;;6.25;2.35;;;24.90;66.10;;;;;;4993622;28;20037;-61
2022/08/08 12:12:44;;;;;;;13.70;2.30;;;25.00;66.10;;;;;;4993934;28;20026;-61
2022/08/08 12:15:10;;;;;;;12.00;2.53;;;25.00;65.90;;;;;;4993796;28;20488;-61
2022/08/08 12:17:37;;;;;;;13.95;2.95;;;25.10;65.50;;;;;;4976174;28;20033;-61
2022/08/08 12:20:04;;;;;;;13.65;2.90;;;25.10;65.40;;;;;;4996508;28;20557;-61
2022/08/08 12:22:31;;;;;;;20.08;3.58;;;25.20;65.40;;;;;;4997137;28;20034;-61
2022/08/08 12:24:56;;;;;;;20.15;2.90;;;25.30;65.30;;;;;;4990871;28;20038;-61
2022/08/08 12:27:22;;;;;;;15.82;3.03;;;25.30;65.10;;;;;;4998596;28;20080;-60
2022/08/08 12:29:54;;;;;;;22.02;3.17;;;25.40;64.80;;;;;;5011920;28;20030;-61
2022/08/08 12:32:20;;;;;;;16.92;3.40;;;25.50;64.70;;;;;;4977272;28;20026;-60
2022/08/08 12:34:49;;;;;;;19.77;3.08;;;25.50;64.70;;;;;;4977822;28;20026;-61
2022/08/08 12:37:22;;;;;;;21.20;3.45;;;25.60;64.30;;;;;;4992231;28;20192;-60
2022/08/08 12:39:47;;;;;;;20.85;3.53;;;25.70;64.10;;;;;;4987779;28;20049;-60
2022/08/08 12:42:13;;;;;;;16.55;3.10;;;25.80;63.90;;;;;;5009409;28;20505;-61
2022/08/08 12:44:40;;;;;;;19.65;3.10;;;25.80;64.00;;;;;;5011453;28;20065;-62
2022/08/08 12:47:06;;;;;;;22.55;3.45;;;25.90;63.70;;;;;;4989730;28;21196;-61
2022/08/08 12:49:35;;;;;;;17.95;3.22;;;26.00;63.10;;;;;;4991817;28;20462;-60
2022/08/08 12:52:02;;;;;;;36.80;3.97;;;26.00;63.00;;;;;;4991932;28;20543;-61
2022/08/08 12:54:35;;;;;;;16.50;3.88;;;26.10;63.20;;;;;;4993264;28;20033;-61
2022/08/08 12:57:20;;;;;;;15.57;3.10;;;26.10;63.70;;;;;;4994114;28;20136;-60
2022/08/08 12:59:50;;;;;;;17.17;3.00;;;26.20;62.70;;;;;;4998492;28;20044;-61
2022/08/08 13:02:24;;;;;;;10.13;2.45;;;26.30;63.20;;;;;;4996145;28;20403;-61
2022/08/08 13:04:50;;;;;;;16.55;3.13;;;26.30;62.10;;;;;;4999526;28;20330;-61
2022/08/08 13:07:17;;;;;;;11.48;2.58;;;26.40;61.80;;;;;;5000497;28;21408;-61
2022/08/08 13:10:06;;;;;;;16.73;2.60;;;26.40;61.40;;;;;;4998236;28;20033;-60